sensor_id;sensor_type;location;lat;lon;timestamp;pressure;altitude;pressure_sealevel;temperature;humidity
6032;BME280;3044;43.232;27.972;2022-11-14T00:00:08;45216.63;;;-143.84;91.82
6032;BME280;3044;43.232;27.972;2022-11-14T00:02:36;45216.63;;;-143.84;92.16
6032;BME280;3044;43.232;27.972;2022-11-14T00:05:03;45188.06;;;-143.84;92.16
6032;BME280;3044;43.232;27.972;2022-11-14T00:07:32;45193.78;;;-143.84;92.62
6032;BME280;3044;43.232;27.972;2022-11-14T00:10:00;45218.53;;;-143.84;92.43
6032;BME280;3044;43.232;27.972;2022-11-14T00:12:27;45209.03;;;-143.84;92.29
6032;BME280;3044;43.232;27.972;2022-11-14T00:14:54;45210.94;;;-143.84;92.48
6032;BME280;3044;43.232;27.972;2022-11-14T00:17:22;45212.84;;;-143.84;92.60
6032;BME280;3044;43.232;27.972;2022-11-14T00:19:49;45258.53;;;-143.84;93.09
6032;BME280;3044;43.232;27.972;2022-11-14T00:22:16;45220.44;;;-143.84;93.06
6032;BME280;3044;43.232;27.972;2022-11-14T00:24:43;45203.31;;;-143.84;93.15
6032;BME280;3044;43.232;27.972;2022-11-14T00:27:12;45216.63;;;-143.84;93.16
6032;BME280;3044;43.232;27.972;2022-11-14T00:29:39;45231.88;;;-143.84;92.83
6032;BME280;3044;43.232;27.972;2022-11-14T00:32:06;45212.84;;;-143.84;92.78
6032;BME280;3044;43.232;27.972;2022-11-14T00:34:33;45229.97;;;-143.84;92.92
6032;BME280;3044;43.232;27.972;2022-11-14T00:37:00;45214.72;;;-143.84;92.71
6032;BME280;3044;43.232;27.972;2022-11-14T00:39:28;45224.25;;;-143.84;92.78
6032;BME280;3044;43.232;27.972;2022-11-14T00:41:55;45224.25;;;-143.84;92.62
6032;BME280;3044;43.232;27.972;2022-11-14T00:44:23;45241.41;;;-143.84;92.62
6032;BME280;3044;43.232;27.972;2022-11-14T00:46:50;45235.69;;;-143.84;92.40
6032;BME280;3044;43.232;27.972;2022-11-14T00:49:17;45209.03;;;-143.84;92.36
6032;BME280;3044;43.232;27.972;2022-11-14T00:51:45;45203.31;;;-143.84;92.39
6032;BME280;3044;43.232;27.972;2022-11-14T00:54:12;45224.25;;;-143.84;92.30
6032;BME280;3044;43.232;27.972;2022-11-14T00:56:39;45222.34;;;-143.84;92.41
6032;BME280;3044;43.232;27.972;2022-11-14T00:59:06;45218.53;;;-143.84;92.42
6032;BME280;3044;43.232;27.972;2022-11-14T01:01:35;45239.50;;;-143.84;92.49
6032;BME280;3044;43.232;27.972;2022-11-14T01:04:02;45243.31;;;-143.84;92.88
6032;BME280;3044;43.232;27.972;2022-11-14T01:06:29;45220.44;;;-143.84;92.91
6032;BME280;3044;43.232;27.972;2022-11-14T01:08:56;45220.44;;;-143.84;93.10
6032;BME280;3044;43.232;27.972;2022-11-14T01:11:23;45199.50;;;-143.84;92.99
6032;BME280;3044;43.232;27.972;2022-11-14T01:13:50;45216.63;;;-143.84;93.17
6032;BME280;3044;43.232;27.972;2022-11-14T01:16:17;45239.50;;;-143.84;93.19
6032;BME280;3044;43.232;27.972;2022-11-14T01:18:46;45218.53;;;-143.84;93.31
6032;BME280;3044;43.232;27.972;2022-11-14T01:21:13;45216.63;;;-143.84;93.08
6032;BME280;3044;43.232;27.972;2022-11-14T01:23:41;45220.44;;;-143.84;92.76
6032;BME280;3044;43.232;27.972;2022-11-14T01:26:09;45210.94;;;-143.84;92.80
6032;BME280;3044;43.232;27.972;2022-11-14T01:28:37;45218.53;;;-143.84;92.66
6032;BME280;3044;43.232;27.972;2022-11-14T01:31:10;45210.94;;;-143.84;92.40
6032;BME280;3044;43.232;27.972;2022-11-14T01:33:37;45224.25;;;-143.84;92.03
6032;BME280;3044;43.232;27.972;2022-11-14T01:36:06;45237.59;;;-143.84;91.75
6032;BME280;3044;43.232;27.972;2022-11-14T01:38:34;45239.50;;;-143.84;91.86
6032;BME280;3044;43.232;27.972;2022-11-14T01:41:02;45203.31;;;-143.84;91.35
6032;BME280;3044;43.232;27.972;2022-11-14T01:43:31;45229.97;;;-143.84;91.24
6032;BME280;3044;43.232;27.972;2022-11-14T01:46:01;45241.41;;;-143.84;90.78
6032;BME280;3044;43.232;27.972;2022-11-14T01:48:34;45226.16;;;-143.84;90.48
6032;BME280;3044;43.232;27.972;2022-11-14T01:51:11;45228.06;;;-143.84;90.33
6032;BME280;3044;43.232;27.972;2022-11-14T01:53:42;45226.16;;;-143.84;89.96
6032;BME280;3044;43.232;27.972;2022-11-14T01:56:12;45228.06;;;-143.84;89.60
6032;BME280;3044;43.232;27.972;2022-11-14T01:58:44;45250.91;;;-143.84;89.18
6032;BME280;3044;43.232;27.972;2022-11-14T02:01:12;45199.50;;;-143.84;89.60
6032;BME280;3044;43.232;27.972;2022-11-14T02:03:41;45220.44;;;-143.84;89.76
6032;BME280;3044;43.232;27.972;2022-11-14T02:06:13;45243.31;;;-143.84;89.96
6032;BME280;3044;43.232;27.972;2022-11-14T02:08:41;45201.41;;;-143.84;90.29
6032;BME280;3044;43.232;27.972;2022-11-14T02:11:10;45222.34;;;-143.84;90.90
6032;BME280;3044;43.232;27.972;2022-11-14T02:13:37;45256.63;;;-143.84;91.14
6032;BME280;3044;43.232;27.972;2022-11-14T02:16:05;45209.03;;;-143.84;91.51
6032;BME280;3044;43.232;27.972;2022-11-14T02:18:33;45212.84;;;-143.84;91.99
6032;BME280;3044;43.232;27.972;2022-11-14T02:21:02;45205.22;;;-143.84;92.25
6032;BME280;3044;43.232;27.972;2022-11-14T02:23:30;45249.00;;;-143.84;92.34
6032;BME280;3044;43.232;27.972;2022-11-14T02:25:58;45245.19;;;-143.84;92.55
6032;BME280;3044;43.232;27.972;2022-11-14T02:28:26;45243.31;;;-143.84;92.66
6032;BME280;3044;43.232;27.972;2022-11-14T02:30:53;45239.50;;;-143.84;92.65
6032;BME280;3044;43.232;27.972;2022-11-14T02:33:20;45245.19;;;-143.84;92.34
6032;BME280;3044;43.232;27.972;2022-11-14T02:35:47;45216.63;;;-143.84;92.16
6032;BME280;3044;43.232;27.972;2022-11-14T02:38:16;45203.31;;;-143.84;91.70
6032;BME280;3044;43.232;27.972;2022-11-14T02:40:43;45212.84;;;-143.84;91.48
6032;BME280;3044;43.232;27.972;2022-11-14T02:43:10;45212.84;;;-143.84;91.24
6032;BME280;3044;43.232;27.972;2022-11-14T02:45:37;45235.69;;;-143.84;90.90
6032;BME280;3044;43.232;27.972;2022-11-14T02:48:05;45233.78;;;-143.84;90.82
6032;BME280;3044;43.232;27.972;2022-11-14T02:50:32;45216.63;;;-143.84;90.67
6032;BME280;3044;43.232;27.972;2022-11-14T02:52:59;45235.69;;;-143.84;90.41
6032;BME280;3044;43.232;27.972;2022-11-14T02:55:27;45209.03;;;-143.84;89.99
6032;BME280;3044;43.232;27.972;2022-11-14T02:57:55;45222.34;;;-143.84;89.72
6032;BME280;3044;43.232;27.972;2022-11-14T03:00:22;45212.84;;;-143.84;89.64
6032;BME280;3044;43.232;27.972;2022-11-14T03:02:49;45226.16;;;-143.84;89.30
6032;BME280;3044;43.232;27.972;2022-11-14T03:05:18;45243.31;;;-143.84;89.24
6032;BME280;3044;43.232;27.972;2022-11-14T03:07:45;45306.13;;;-143.84;88.88
6032;BME280;3044;43.232;27.972;2022-11-14T03:10:13;45229.97;;;-143.84;88.66
6032;BME280;3044;43.232;27.972;2022-11-14T03:12:41;45231.88;;;-143.84;88.39
6032;BME280;3044;43.232;27.972;2022-11-14T03:15:09;45237.59;;;-143.84;88.04
6032;BME280;3044;43.232;27.972;2022-11-14T03:17:37;45243.31;;;-143.84;87.85
6032;BME280;3044;43.232;27.972;2022-11-14T03:20:05;45226.16;;;-143.84;87.93
6032;BME280;3044;43.232;27.972;2022-11-14T03:22:32;45226.16;;;-143.84;88.46
6032;BME280;3044;43.232;27.972;2022-11-14T03:25:00;45260.44;;;-143.84;88.56
6032;BME280;3044;43.232;27.972;2022-11-14T03:27:27;45258.53;;;-143.84;88.87
6032;BME280;3044;43.232;27.972;2022-11-14T03:29:55;45228.06;;;-143.84;89.46
6032;BME280;3044;43.232;27.972;2022-11-14T03:32:22;45228.06;;;-143.84;89.40
6032;BME280;3044;43.232;27.972;2022-11-14T03:34:49;45222.34;;;-143.84;89.33
6032;BME280;3044;43.232;27.972;2022-11-14T03:37:17;45245.19;;;-143.84;89.43
6032;BME280;3044;43.232;27.972;2022-11-14T03:39:44;45239.50;;;-143.84;89.53
6032;BME280;3044;43.232;27.972;2022-11-14T03:42:11;45235.69;;;-143.84;89.46
6032;BME280;3044;43.232;27.972;2022-11-14T03:44:38;45271.88;;;-143.84;89.31
6032;BME280;3044;43.232;27.972;2022-11-14T03:47:07;45235.69;;;-143.84;88.99
6032;BME280;3044;43.232;27.972;2022-11-14T03:49:34;45273.78;;;-143.84;88.86
6032;BME280;3044;43.232;27.972;2022-11-14T03:52:01;45241.41;;;-143.84;89.15
6032;BME280;3044;43.232;27.972;2022-11-14T03:54:28;45212.84;;;-143.84;88.99
6032;BME280;3044;43.232;27.972;2022-11-14T03:56:55;45214.72;;;-143.84;89.04
6032;BME280;3044;43.232;27.972;2022-11-14T03:59:22;45247.09;;;-143.84;88.53
6032;BME280;3044;43.232;27.972;2022-11-14T04:01:50;45245.19;;;-143.84;88.73
6032;BME280;3044;43.232;27.972;2022-11-14T04:04:18;45250.91;;;-143.84;88.96
6032;BME280;3044;43.232;27.972;2022-11-14T04:06:45;45226.16;;;-143.84;88.87
6032;BME280;3044;43.232;27.972;2022-11-14T04:09:12;45235.69;;;-143.84;88.90
6032;BME280;3044;43.232;27.972;2022-11-14T04:11:40;45239.50;;;-143.84;89.07
6032;BME280;3044;43.232;27.972;2022-11-14T04:14:07;45233.78;;;-143.84;89.58
6032;BME280;3044;43.232;27.972;2022-11-14T04:16:35;45216.63;;;-143.84;89.35
6032;BME280;3044;43.232;27.972;2022-11-14T04:19:02;45243.31;;;-143.84;89.20
6032;BME280;3044;43.232;27.972;2022-11-14T04:21:31;45262.34;;;-143.84;89.47
6032;BME280;3044;43.232;27.972;2022-11-14T04:23:58;45264.25;;;-143.84;89.67
6032;BME280;3044;43.232;27.972;2022-11-14T04:26:25;45254.72;;;-143.84;89.95
6032;BME280;3044;43.232;27.972;2022-11-14T04:28:52;45249.00;;;-143.84;90.13
6032;BME280;3044;43.232;27.972;2022-11-14T04:31:19;45226.16;;;-143.84;90.06
6032;BME280;3044;43.232;27.972;2022-11-14T04:33:46;45243.31;;;-143.84;90.33
6032;BME280;3044;43.232;27.972;2022-11-14T04:36:14;45247.09;;;-143.84;90.18
6032;BME280;3044;43.232;27.972;2022-11-14T04:38:42;45266.16;;;-143.84;90.32
6032;BME280;3044;43.232;27.972;2022-11-14T04:41:09;45237.59;;;-143.84;91.04
6032;BME280;3044;43.232;27.972;2022-11-14T04:43:36;45226.16;;;-143.84;90.80
6032;BME280;3044;43.232;27.972;2022-11-14T04:46:04;45264.25;;;-143.84;90.89
6032;BME280;3044;43.232;27.972;2022-11-14T04:48:31;45273.78;;;-143.84;91.35
6032;BME280;3044;43.232;27.972;2022-11-14T04:50:58;45247.09;;;-143.84;91.38
6032;BME280;3044;43.232;27.972;2022-11-14T04:53:25;45254.72;;;-143.84;91.80
6032;BME280;3044;43.232;27.972;2022-11-14T04:55:54;45218.53;;;-143.84;92.22
6032;BME280;3044;43.232;27.972;2022-11-14T04:58:21;45256.63;;;-143.84;92.28
6032;BME280;3044;43.232;27.972;2022-11-14T05:00:48;45245.19;;;-143.84;92.16
6032;BME280;3044;43.232;27.972;2022-11-14T05:03:15;45237.59;;;-143.84;92.67
6032;BME280;3044;43.232;27.972;2022-11-14T05:05:42;45254.72;;;-143.84;92.61
6032;BME280;3044;43.232;27.972;2022-11-14T05:08:09;45235.69;;;-143.84;91.97
6032;BME280;3044;43.232;27.972;2022-11-14T05:10:36;45216.63;;;-143.84;92.14
6032;BME280;3044;43.232;27.972;2022-11-14T05:13:05;45262.34;;;-143.84;92.42
6032;BME280;3044;43.232;27.972;2022-11-14T05:15:32;45235.69;;;-143.84;92.23
6032;BME280;3044;43.232;27.972;2022-11-14T05:17:59;45254.72;;;-143.84;91.96
6032;BME280;3044;43.232;27.972;2022-11-14T05:20:26;45239.50;;;-143.84;91.83
6032;BME280;3044;43.232;27.972;2022-11-14T05:22:54;45241.41;;;-143.84;91.27
6032;BME280;3044;43.232;27.972;2022-11-14T05:25:23;45222.34;;;-143.84;90.51
6032;BME280;3044;43.232;27.972;2022-11-14T05:27:50;45239.50;;;-143.84;90.49
6032;BME280;3044;43.232;27.972;2022-11-14T05:30:19;45235.69;;;-143.84;89.99
6032;BME280;3044;43.232;27.972;2022-11-14T05:32:46;45277.56;;;-143.84;90.06
6032;BME280;3044;43.232;27.972;2022-11-14T05:35:13;45239.50;;;-143.84;90.14
6032;BME280;3044;43.232;27.972;2022-11-14T05:37:40;45239.50;;;-143.84;90.48
6032;BME280;3044;43.232;27.972;2022-11-14T05:40:09;45241.41;;;-143.84;90.27
6032;BME280;3044;43.232;27.972;2022-11-14T05:42:36;45226.16;;;-143.84;90.75
6032;BME280;3044;43.232;27.972;2022-11-14T05:45:04;45241.41;;;-143.84;90.37
6032;BME280;3044;43.232;27.972;2022-11-14T05:47:33;45235.69;;;-143.84;90.37
6032;BME280;3044;43.232;27.972;2022-11-14T05:50:00;45241.41;;;-143.84;90.10
6032;BME280;3044;43.232;27.972;2022-11-14T05:52:28;45266.16;;;-143.84;89.89
6032;BME280;3044;43.232;27.972;2022-11-14T05:54:55;45239.50;;;-143.84;90.42
6032;BME280;3044;43.232;27.972;2022-11-14T05:57:22;45231.88;;;-143.84;90.61
6032;BME280;3044;43.232;27.972;2022-11-14T05:59:49;45231.88;;;-143.84;90.01
6032;BME280;3044;43.232;27.972;2022-11-14T06:02:16;45224.25;;;-143.84;90.29
6032;BME280;3044;43.232;27.972;2022-11-14T06:04:45;45233.78;;;-143.84;90.19
6032;BME280;3044;43.232;27.972;2022-11-14T06:07:12;45235.69;;;-143.84;90.90
6032;BME280;3044;43.232;27.972;2022-11-14T06:09:39;45231.88;;;-143.84;91.12
6032;BME280;3044;43.232;27.972;2022-11-14T06:12:07;45231.88;;;-143.84;91.23
6032;BME280;3044;43.232;27.972;2022-11-14T06:14:34;45249.00;;;-143.84;91.95
6032;BME280;3044;43.232;27.972;2022-11-14T06:17:01;45222.34;;;-143.84;92.18
6032;BME280;3044;43.232;27.972;2022-11-14T06:19:28;45245.19;;;-143.84;93.05
6032;BME280;3044;43.232;27.972;2022-11-14T06:21:57;45269.97;;;-143.84;93.43
6032;BME280;3044;43.232;27.972;2022-11-14T06:24:24;45226.16;;;-143.84;93.81
6032;BME280;3044;43.232;27.972;2022-11-14T06:26:51;45231.88;;;-143.84;94.14
6032;BME280;3044;43.232;27.972;2022-11-14T06:29:18;45231.88;;;-143.84;94.31
6032;BME280;3044;43.232;27.972;2022-11-14T06:31:45;45243.31;;;-143.84;94.85
6032;BME280;3044;43.232;27.972;2022-11-14T06:34:12;45268.06;;;-143.84;94.63
6032;BME280;3044;43.232;27.972;2022-11-14T06:36:40;45222.34;;;-143.84;94.99
6032;BME280;3044;43.232;27.972;2022-11-14T06:39:08;45262.34;;;-143.84;95.09
6032;BME280;3044;43.232;27.972;2022-11-14T06:41:36;45226.16;;;-143.84;95.10
6032;BME280;3044;43.232;27.972;2022-11-14T06:44:03;45239.50;;;-143.84;95.22
6032;BME280;3044;43.232;27.972;2022-11-14T06:46:30;45207.13;;;-143.84;95.21
6032;BME280;3044;43.232;27.972;2022-11-14T06:48:57;45220.44;;;-143.84;95.25
6032;BME280;3044;43.232;27.972;2022-11-14T06:51:24;45218.53;;;-143.84;94.91
6032;BME280;3044;43.232;27.972;2022-11-14T06:53:51;45239.50;;;-143.84;94.56
6032;BME280;3044;43.232;27.972;2022-11-14T06:56:20;45254.72;;;-143.84;93.85
6032;BME280;3044;43.232;27.972;2022-11-14T06:58:48;45214.72;;;-143.84;93.20
6032;BME280;3044;43.232;27.972;2022-11-14T07:01:16;45229.97;;;-143.84;92.29
6032;BME280;3044;43.232;27.972;2022-11-14T07:03:44;45226.16;;;-143.84;91.56
6032;BME280;3044;43.232;27.972;2022-11-14T07:06:13;45216.63;;;-143.84;91.83
6032;BME280;3044;43.232;27.972;2022-11-14T07:08:41;45212.84;;;-143.84;90.81
6032;BME280;3044;43.232;27.972;2022-11-14T07:11:09;45209.03;;;-143.84;90.25
6032;BME280;3044;43.232;27.972;2022-11-14T07:13:38;45212.84;;;-143.84;88.81
6032;BME280;3044;43.232;27.972;2022-11-14T07:16:06;45197.59;;;-143.84;88.13
6032;BME280;3044;43.232;27.972;2022-11-14T07:18:33;45210.94;;;-143.84;86.62
6032;BME280;3044;43.232;27.972;2022-11-14T07:21:02;45170.94;;;-143.84;86.78
6032;BME280;3044;43.232;27.972;2022-11-14T07:23:30;45188.06;;;-143.84;85.28
6032;BME280;3044;43.232;27.972;2022-11-14T07:25:59;45197.59;;;-143.84;83.87
6032;BME280;3044;43.232;27.972;2022-11-14T07:28:27;45210.94;;;-143.84;83.18
6032;BME280;3044;43.232;27.972;2022-11-14T07:30:55;45197.59;;;-143.84;82.98
6032;BME280;3044;43.232;27.972;2022-11-14T07:33:23;45207.13;;;-143.84;81.81
6032;BME280;3044;43.232;27.972;2022-11-14T07:35:50;45191.88;;;-143.84;80.30
6032;BME280;3044;43.232;27.972;2022-11-14T07:38:17;45199.50;;;-143.84;80.14
6032;BME280;3044;43.232;27.972;2022-11-14T07:40:52;45201.41;;;-143.84;78.53
6032;BME280;3044;43.232;27.972;2022-11-14T07:43:19;45184.25;;;-143.84;76.96
6032;BME280;3044;43.232;27.972;2022-11-14T07:45:47;45193.78;;;-143.84;76.26
6032;BME280;3044;43.232;27.972;2022-11-14T07:48:16;45186.16;;;-143.84;75.13
6032;BME280;3044;43.232;27.972;2022-11-14T07:50:43;45186.16;;;-143.84;74.53
6032;BME280;3044;43.232;27.972;2022-11-14T07:53:12;45172.84;;;-143.84;72.91
6032;BME280;3044;43.232;27.972;2022-11-14T07:55:40;45180.47;;;-143.84;72.77
6032;BME280;3044;43.232;27.972;2022-11-14T07:58:07;45174.75;;;-143.84;72.50
6032;BME280;3044;43.232;27.972;2022-11-14T08:00:34;45186.16;;;-143.84;71.96
6032;BME280;3044;43.232;27.972;2022-11-14T08:03:01;45178.56;;;-143.84;70.55
6032;BME280;3044;43.232;27.972;2022-11-14T08:05:30;45188.06;;;-143.84;70.11
6032;BME280;3044;43.232;27.972;2022-11-14T08:07:57;45170.94;;;-143.84;69.39
6032;BME280;3044;43.232;27.972;2022-11-14T08:10:24;45174.75;;;-143.84;69.94
6032;BME280;3044;43.232;27.972;2022-11-14T08:12:56;45159.50;;;-143.84;68.46
6032;BME280;3044;43.232;27.972;2022-11-14T08:15:25;45159.50;;;-143.84;68.07
6032;BME280;3044;43.232;27.972;2022-11-14T08:17:56;45188.06;;;-143.84;67.07
6032;BME280;3044;43.232;27.972;2022-11-14T08:20:23;45167.13;;;-143.84;67.84
6032;BME280;3044;43.232;27.972;2022-11-14T08:22:52;45163.31;;;-143.84;67.64
6032;BME280;3044;43.232;27.972;2022-11-14T08:25:19;45148.09;;;-143.84;67.38
6032;BME280;3044;43.232;27.972;2022-11-14T08:27:46;45191.88;;;-143.84;67.63
6032;BME280;3044;43.232;27.972;2022-11-14T08:30:14;45178.56;;;-143.84;67.11
6032;BME280;3044;43.232;27.972;2022-11-14T08:32:41;45174.75;;;-143.84;66.97
6032;BME280;3044;43.232;27.972;2022-11-14T08:35:08;45151.91;;;-143.84;68.25
6032;BME280;3044;43.232;27.972;2022-11-14T08:37:35;45148.09;;;-143.84;67.18
6032;BME280;3044;43.232;27.972;2022-11-14T08:40:04;45169.03;;;-143.84;65.32
6032;BME280;3044;43.232;27.972;2022-11-14T08:42:32;45165.22;;;-143.84;64.52
6032;BME280;3044;43.232;27.972;2022-11-14T08:44:59;45176.66;;;-143.84;63.96
6032;BME280;3044;43.232;27.972;2022-11-14T08:47:26;45157.59;;;-143.84;64.08
6032;BME280;3044;43.232;27.972;2022-11-14T08:49:53;45148.09;;;-143.84;64.25
6032;BME280;3044;43.232;27.972;2022-11-14T08:52:20;45167.13;;;-143.84;63.62
6032;BME280;3044;43.232;27.972;2022-11-14T08:54:48;45163.31;;;-143.84;63.72
6032;BME280;3044;43.232;27.972;2022-11-14T08:57:16;45163.31;;;-143.84;62.32
6032;BME280;3044;43.232;27.972;2022-11-14T08:59:44;45159.50;;;-143.84;62.34
6032;BME280;3044;43.232;27.972;2022-11-14T09:02:11;45163.31;;;-143.84;61.62
6032;BME280;3044;43.232;27.972;2022-11-14T09:04:39;45172.84;;;-143.84;60.41
6032;BME280;3044;43.232;27.972;2022-11-14T09:07:06;45159.50;;;-143.84;58.63
6032;BME280;3044;43.232;27.972;2022-11-14T09:09:33;45176.66;;;-143.84;59.48
6032;BME280;3044;43.232;27.972;2022-11-14T09:12:01;45155.69;;;-143.84;61.03
6032;BME280;3044;43.232;27.972;2022-11-14T09:14:29;45161.41;;;-143.84;60.72
6032;BME280;3044;43.232;27.972;2022-11-14T09:16:57;45148.09;;;-143.84;60.86
6032;BME280;3044;43.232;27.972;2022-11-14T09:19:24;45165.22;;;-143.84;60.78
6032;BME280;3044;43.232;27.972;2022-11-14T09:21:51;45159.50;;;-143.84;61.04
6032;BME280;3044;43.232;27.972;2022-11-14T09:24:18;45161.41;;;-143.84;62.04
6032;BME280;3044;43.232;27.972;2022-11-14T09:26:45;45180.47;;;-143.84;63.43
6032;BME280;3044;43.232;27.972;2022-11-14T09:29:14;45165.22;;;-143.84;63.10
6032;BME280;3044;43.232;27.972;2022-11-14T09:31:44;45163.31;;;-143.84;63.70
6032;BME280;3044;43.232;27.972;2022-11-14T09:34:12;45178.56;;;-143.84;63.75
6032;BME280;3044;43.232;27.972;2022-11-14T09:36:39;45172.84;;;-143.84;64.74
6032;BME280;3044;43.232;27.972;2022-11-14T09:39:06;45170.94;;;-143.84;65.13
6032;BME280;3044;43.232;27.972;2022-11-14T09:41:43;45197.59;;;-143.84;65.71
6032;BME280;3044;43.232;27.972;2022-11-14T09:44:28;45193.78;;;-143.84;66.42
6032;BME280;3044;43.232;27.972;2022-11-14T09:47:02;45188.06;;;-143.84;66.89
6032;BME280;3044;43.232;27.972;2022-11-14T09:49:34;45161.41;;;-143.84;67.55
6032;BME280;3044;43.232;27.972;2022-11-14T09:52:11;45193.78;;;-143.84;68.18
6032;BME280;3044;43.232;27.972;2022-11-14T09:54:44;45172.84;;;-143.84;67.62
6032;BME280;3044;43.232;27.972;2022-11-14T09:57:15;45172.84;;;-143.84;68.58
6032;BME280;3044;43.232;27.972;2022-11-14T09:59:43;45197.59;;;-143.84;69.28
6032;BME280;3044;43.232;27.972;2022-11-14T10:02:24;45178.56;;;-143.84;69.92
6032;BME280;3044;43.232;27.972;2022-11-14T10:05:08;45167.13;;;-143.84;69.49
6032;BME280;3044;43.232;27.972;2022-11-14T10:07:50;45197.59;;;-143.84;70.34
6032;BME280;3044;43.232;27.972;2022-11-14T10:10:32;45189.97;;;-143.84;70.62
6032;BME280;3044;43.232;27.972;2022-11-14T10:13:10;45207.13;;;-143.84;71.03
6032;BME280;3044;43.232;27.972;2022-11-14T10:15:45;45205.22;;;-143.84;71.48
6032;BME280;3044;43.232;27.972;2022-11-14T10:21:24;45193.78;;;-143.84;72.72
6032;BME280;3044;43.232;27.972;2022-11-14T10:24:02;45191.88;;;-143.84;72.72
6032;BME280;3044;43.232;27.972;2022-11-14T10:26:36;45189.97;;;-143.84;73.22
6032;BME280;3044;43.232;27.972;2022-11-14T10:29:26;45203.31;;;-143.84;74.22
6032;BME280;3044;43.232;27.972;2022-11-14T10:32:04;45203.31;;;-143.84;74.54
6032;BME280;3044;43.232;27.972;2022-11-14T10:34:44;45186.16;;;-143.84;74.10
6032;BME280;3044;43.232;27.972;2022-11-14T10:37:17;45207.13;;;-143.84;74.13
6032;BME280;3044;43.232;27.972;2022-11-14T10:39:50;45216.63;;;-143.84;73.62
6032;BME280;3044;43.232;27.972;2022-11-14T10:42:21;45189.97;;;-143.84;73.91
6032;BME280;3044;43.232;27.972;2022-11-14T10:44:54;45199.50;;;-143.84;73.93
6032;BME280;3044;43.232;27.972;2022-11-14T10:47:24;45193.78;;;-143.84;74.01
6032;BME280;3044;43.232;27.972;2022-11-14T10:50:14;45212.84;;;-143.84;73.90
6032;BME280;3044;43.232;27.972;2022-11-14T10:52:44;45210.94;;;-143.84;74.02
6032;BME280;3044;43.232;27.972;2022-11-14T10:55:14;45201.41;;;-143.84;73.39
6032;BME280;3044;43.232;27.972;2022-11-14T10:57:42;45220.44;;;-143.84;73.76
6032;BME280;3044;43.232;27.972;2022-11-14T11:00:11;45216.63;;;-143.84;74.55
6032;BME280;3044;43.232;27.972;2022-11-14T11:02:48;45216.63;;;-143.84;75.38
6032;BME280;3044;43.232;27.972;2022-11-14T11:05:19;45220.44;;;-143.84;75.44
6032;BME280;3044;43.232;27.972;2022-11-14T11:07:47;45209.03;;;-143.84;76.05
6032;BME280;3044;43.232;27.972;2022-11-14T11:10:34;45186.16;;;-143.84;76.09
6032;BME280;3044;43.232;27.972;2022-11-14T11:13:33;45216.63;;;-143.84;76.75
6032;BME280;3044;43.232;27.972;2022-11-14T11:16:03;45220.44;;;-143.84;76.41
6032;BME280;3044;43.232;27.972;2022-11-14T11:18:32;45201.41;;;-143.84;76.39
6032;BME280;3044;43.232;27.972;2022-11-14T11:21:07;45214.72;;;-143.84;76.48
6032;BME280;3044;43.232;27.972;2022-11-14T11:23:35;45189.97;;;-143.84;76.77
6032;BME280;3044;43.232;27.972;2022-11-14T11:26:05;45178.56;;;-143.84;76.88
6032;BME280;3044;43.232;27.972;2022-11-14T11:28:34;45207.13;;;-143.84;76.50
6032;BME280;3044;43.232;27.972;2022-11-14T11:31:03;45210.94;;;-143.84;76.61
6032;BME280;3044;43.232;27.972;2022-11-14T11:33:32;45210.94;;;-143.84;76.15
6032;BME280;3044;43.232;27.972;2022-11-14T11:36:04;45172.84;;;-143.84;76.45
6032;BME280;3044;43.232;27.972;2022-11-14T11:38:32;45214.72;;;-143.84;76.69
6032;BME280;3044;43.232;27.972;2022-11-14T11:41:05;45229.97;;;-143.84;77.08
6032;BME280;3044;43.232;27.972;2022-11-14T11:43:41;45201.41;;;-143.84;76.29
6032;BME280;3044;43.232;27.972;2022-11-14T11:46:14;45207.13;;;-143.84;76.04
6032;BME280;3044;43.232;27.972;2022-11-14T11:48:47;45205.22;;;-143.84;75.69
6032;BME280;3044;43.232;27.972;2022-11-14T11:51:21;45176.66;;;-143.84;76.07
6032;BME280;3044;43.232;27.972;2022-11-14T11:53:57;45193.78;;;-143.84;75.83
6032;BME280;3044;43.232;27.972;2022-11-14T11:56:30;45186.16;;;-143.84;76.87
6032;BME280;3044;43.232;27.972;2022-11-14T11:59:04;45203.31;;;-143.84;76.11
6032;BME280;3044;43.232;27.972;2022-11-14T12:01:39;45224.25;;;-143.84;75.99
6032;BME280;3044;43.232;27.972;2022-11-14T12:04:06;45216.63;;;-143.84;76.08
6032;BME280;3044;43.232;27.972;2022-11-14T12:06:40;45209.03;;;-143.84;76.17
6032;BME280;3044;43.232;27.972;2022-11-14T12:09:15;45207.13;;;-143.84;76.43
6032;BME280;3044;43.232;27.972;2022-11-14T12:11:49;45189.97;;;-143.84;76.49
6032;BME280;3044;43.232;27.972;2022-11-14T12:14:36;45172.84;;;-143.84;76.08
6032;BME280;3044;43.232;27.972;2022-11-14T12:17:32;45214.72;;;-143.84;76.06
6032;BME280;3044;43.232;27.972;2022-11-14T12:26:28;45197.59;;;-143.84;76.80
6032;BME280;3044;43.232;27.972;2022-11-14T12:29:22;45210.94;;;-143.84;77.13
6032;BME280;3044;43.232;27.972;2022-11-14T12:31:55;45209.03;;;-143.84;76.68
6032;BME280;3044;43.232;27.972;2022-11-14T12:34:27;45199.50;;;-143.84;76.18
6032;BME280;3044;43.232;27.972;2022-11-14T12:36:56;45216.63;;;-143.84;76.32
6032;BME280;3044;43.232;27.972;2022-11-14T12:39:27;45220.44;;;-143.84;75.72
6032;BME280;3044;43.232;27.972;2022-11-14T12:42:02;45186.16;;;-143.84;75.76
6032;BME280;3044;43.232;27.972;2022-11-14T12:44:34;45214.72;;;-143.84;75.62
6032;BME280;3044;43.232;27.972;2022-11-14T12:47:12;45209.03;;;-143.84;75.93
6032;BME280;3044;43.232;27.972;2022-11-14T12:49:58;45214.72;;;-143.84;76.37
6032;BME280;3044;43.232;27.972;2022-11-14T12:52:44;45207.13;;;-143.84;76.74
6032;BME280;3044;43.232;27.972;2022-11-14T12:58:25;45209.03;;;-143.84;77.23
6032;BME280;3044;43.232;27.972;2022-11-14T13:01:08;45214.72;;;-143.84;77.59
6032;BME280;3044;43.232;27.972;2022-11-14T13:03:50;45233.78;;;-143.84;77.53
6032;BME280;3044;43.232;27.972;2022-11-14T13:06:24;45212.84;;;-143.84;77.88
6032;BME280;3044;43.232;27.972;2022-11-14T13:09:26;45205.22;;;-143.84;77.44
6032;BME280;3044;43.232;27.972;2022-11-14T13:11:56;45188.06;;;-143.84;77.38
6032;BME280;3044;43.232;27.972;2022-11-14T13:14:50;45210.94;;;-143.84;77.61